sensor_id;sensor_type;location;lat;lon;timestamp;P1;durP1;ratioP1;P2;durP2;ratioP2
75435;SDS011;64014;53.432;14.534;2023-03-01T00:01:49;83.90;;;36.58;;
75435;SDS011;64014;53.432;14.534;2023-03-01T00:04:16;70.95;;;33.53;;
75435;SDS011;64014;53.432;14.534;2023-03-01T00:06:42;81.00;;;35.38;;
75435;SDS011;64014;53.432;14.534;2023-03-01T00:09:11;83.57;;;36.40;;
75435;SDS011;64014;53.432;14.534;2023-03-01T00:11:37;86.00;;;39.00;;
75435;SDS011;64014;53.432;14.534;2023-03-01T00:14:03;85.32;;;38.75;;
75435;SDS011;64014;53.432;14.534;2023-03-01T00:16:31;82.70;;;36.05;;
75435;SDS011;64014;53.432;14.534;2023-03-01T00:18:58;81.93;;;34.88;;
75435;SDS011;64014;53.432;14.534;2023-03-01T00:21:25;67.45;;;30.38;;
75435;SDS011;64014;53.432;14.534;2023-03-01T00:23:51;69.57;;;29.63;;
75435;SDS011;64014;53.432;14.534;2023-03-01T00:26:18;61.13;;;26.52;;
75435;SDS011;64014;53.432;14.534;2023-03-01T00:28:44;59.25;;;25.92;;
75435;SDS011;64014;53.432;14.534;2023-03-01T00:31:12;53.58;;;23.35;;
75435;SDS011;64014;53.432;14.534;2023-03-01T00:33:38;40.60;;;20.27;;
75435;SDS011;64014;53.432;14.534;2023-03-01T00:36:05;42.05;;;18.50;;
75435;SDS011;64014;53.432;14.534;2023-03-01T00:38:34;36.63;;;16.55;;
75435;SDS011;64014;53.432;14.534;2023-03-01T00:41:04;43.17;;;18.58;;
75435;SDS011;64014;53.432;14.534;2023-03-01T00:43:31;41.40;;;18.77;;
75435;SDS011;64014;53.432;14.534;2023-03-01T00:46:02;53.95;;;20.55;;
75435;SDS011;64014;53.432;14.534;2023-03-01T00:48:28;53.53;;;23.83;;
75435;SDS011;64014;53.432;14.534;2023-03-01T00:50:54;59.88;;;26.70;;
75435;SDS011;64014;53.432;14.534;2023-03-01T00:53:20;60.10;;;25.33;;
75435;SDS011;64014;53.432;14.534;2023-03-01T00:55:47;56.17;;;23.92;;
75435;SDS011;64014;53.432;14.534;2023-03-01T00:58:13;53.03;;;23.88;;
75435;SDS011;64014;53.432;14.534;2023-03-01T01:00:39;53.38;;;22.83;;
75435;SDS011;64014;53.432;14.534;2023-03-01T01:03:05;52.70;;;23.70;;
75435;SDS011;64014;53.432;14.534;2023-03-01T01:05:34;49.70;;;20.88;;
75435;SDS011;64014;53.432;14.534;2023-03-01T01:08:00;42.20;;;18.95;;
75435;SDS011;64014;53.432;14.534;2023-03-01T01:10:26;52.42;;;25.63;;
75435;SDS011;64014;53.432;14.534;2023-03-01T01:12:52;53.03;;;23.52;;
75435;SDS011;64014;53.432;14.534;2023-03-01T01:15:18;47.97;;;21.83;;
75435;SDS011;64014;53.432;14.534;2023-03-01T01:17:44;39.78;;;18.15;;
75435;SDS011;64014;53.432;14.534;2023-03-01T01:20:11;47.35;;;21.83;;
75435;SDS011;64014;53.432;14.534;2023-03-01T01:22:37;41.67;;;18.60;;
75435;SDS011;64014;53.432;14.534;2023-03-01T01:25:03;48.33;;;21.40;;
75435;SDS011;64014;53.432;14.534;2023-03-01T01:27:30;48.67;;;19.98;;
75435;SDS011;64014;53.432;14.534;2023-03-01T01:29:56;39.65;;;18.13;;
75435;SDS011;64014;53.432;14.534;2023-03-01T01:32:22;44.85;;;20.63;;
75435;SDS011;64014;53.432;14.534;2023-03-01T01:34:48;46.50;;;20.58;;
75435;SDS011;64014;53.432;14.534;2023-03-01T01:37:14;40.50;;;17.70;;
75435;SDS011;64014;53.432;14.534;2023-03-01T01:39:40;64.85;;;26.30;;
75435;SDS011;64014;53.432;14.534;2023-03-01T01:42:11;57.85;;;26.63;;
75435;SDS011;64014;53.432;14.534;2023-03-01T01:44:42;55.72;;;25.63;;
75435;SDS011;64014;53.432;14.534;2023-03-01T01:47:13;61.90;;;25.10;;
75435;SDS011;64014;53.432;14.534;2023-03-01T01:49:51;39.70;;;18.23;;
75435;SDS011;64014;53.432;14.534;2023-03-01T01:52:24;55.90;;;24.13;;
75435;SDS011;64014;53.432;14.534;2023-03-01T01:57:20;61.00;;;27.42;;
75435;SDS011;64014;53.432;14.534;2023-03-01T01:59:49;50.88;;;22.77;;
75435;SDS011;64014;53.432;14.534;2023-03-01T02:02:16;54.15;;;25.92;;
75435;SDS011;64014;53.432;14.534;2023-03-01T02:04:43;54.65;;;25.10;;
75435;SDS011;64014;53.432;14.534;2023-03-01T02:07:16;57.17;;;27.80;;
75435;SDS011;64014;53.432;14.534;2023-03-01T02:09:45;55.42;;;27.17;;
75435;SDS011;64014;53.432;14.534;2023-03-01T02:12:12;42.20;;;18.60;;
75435;SDS011;64014;53.432;14.534;2023-03-01T02:14:39;52.15;;;22.73;;
75435;SDS011;64014;53.432;14.534;2023-03-01T02:17:05;49.88;;;23.08;;
75435;SDS011;64014;53.432;14.534;2023-03-01T02:19:48;34.58;;;15.30;;
75435;SDS011;64014;53.432;14.534;2023-03-01T02:22:25;51.15;;;22.42;;
75435;SDS011;64014;53.432;14.534;2023-03-01T02:25:03;33.80;;;15.75;;
75435;SDS011;64014;53.432;14.534;2023-03-01T02:27:37;50.22;;;21.63;;
75435;SDS011;64014;53.432;14.534;2023-03-01T02:30:04;57.50;;;23.90;;
75435;SDS011;64014;53.432;14.534;2023-03-01T02:32:31;56.47;;;25.58;;
75435;SDS011;64014;53.432;14.534;2023-03-01T02:34:57;59.60;;;26.15;;
75435;SDS011;64014;53.432;14.534;2023-03-01T02:37:24;57.97;;;24.08;;
75435;SDS011;64014;53.432;14.534;2023-03-01T02:39:56;58.42;;;24.95;;
75435;SDS011;64014;53.432;14.534;2023-03-01T02:42:26;44.92;;;20.52;;
75435;SDS011;64014;53.432;14.534;2023-03-01T02:47:18;51.47;;;22.17;;
75435;SDS011;64014;53.432;14.534;2023-03-01T02:49:45;44.58;;;19.65;;
75435;SDS011;64014;53.432;14.534;2023-03-01T02:55:06;42.72;;;19.27;;
75435;SDS011;64014;53.432;14.534;2023-03-01T02:59:59;32.53;;;15.32;;
75435;SDS011;64014;53.432;14.534;2023-03-01T03:02:32;31.30;;;14.05;;
75435;SDS011;64014;53.432;14.534;2023-03-01T03:05:11;37.35;;;14.70;;
75435;SDS011;64014;53.432;14.534;2023-03-01T03:07:39;36.05;;;14.02;;
75435;SDS011;64014;53.432;14.534;2023-03-01T03:10:07;30.60;;;14.48;;
75435;SDS011;64014;53.432;14.534;2023-03-01T03:12:36;27.45;;;12.27;;
75435;SDS011;64014;53.432;14.534;2023-03-01T03:15:03;34.33;;;15.38;;
75435;SDS011;64014;53.432;14.534;2023-03-01T03:17:36;34.90;;;15.32;;
75435;SDS011;64014;53.432;14.534;2023-03-01T03:20:03;37.42;;;13.40;;
75435;SDS011;64014;53.432;14.534;2023-03-01T03:22:31;33.40;;;14.52;;
75435;SDS011;64014;53.432;14.534;2023-03-01T03:24:59;33.78;;;13.77;;
75435;SDS011;64014;53.432;14.534;2023-03-01T03:27:25;29.17;;;12.77;;
75435;SDS011;64014;53.432;14.534;2023-03-01T03:29:51;28.90;;;13.90;;
75435;SDS011;64014;53.432;14.534;2023-03-01T03:32:17;33.75;;;13.52;;
75435;SDS011;64014;53.432;14.534;2023-03-01T03:34:43;24.83;;;11.35;;
75435;SDS011;64014;53.432;14.534;2023-03-01T03:37:10;35.60;;;13.23;;
75435;SDS011;64014;53.432;14.534;2023-03-01T03:39:56;37.25;;;14.80;;
75435;SDS011;64014;53.432;14.534;2023-03-01T03:42:22;28.88;;;13.73;;
75435;SDS011;64014;53.432;14.534;2023-03-01T03:44:48;27.73;;;13.23;;
75435;SDS011;64014;53.432;14.534;2023-03-01T03:47:14;22.20;;;10.25;;
75435;SDS011;64014;53.432;14.534;2023-03-01T03:49:40;26.17;;;11.75;;
75435;SDS011;64014;53.432;14.534;2023-03-01T03:52:06;24.73;;;11.52;;
75435;SDS011;64014;53.432;14.534;2023-03-01T03:54:39;24.70;;;11.10;;
75435;SDS011;64014;53.432;14.534;2023-03-01T03:57:05;24.05;;;11.43;;
75435;SDS011;64014;53.432;14.534;2023-03-01T03:59:31;21.83;;;10.73;;
75435;SDS011;64014;53.432;14.534;2023-03-01T04:01:58;17.30;;;9.40;;
75435;SDS011;64014;53.432;14.534;2023-03-01T04:04:24;23.92;;;10.77;;
75435;SDS011;64014;53.432;14.534;2023-03-01T04:06:50;20.73;;;10.65;;
75435;SDS011;64014;53.432;14.534;2023-03-01T04:09:16;27.83;;;11.85;;
75435;SDS011;64014;53.432;14.534;2023-03-01T04:11:43;24.00;;;10.93;;
75435;SDS011;64014;53.432;14.534;2023-03-01T04:14:09;23.52;;;9.85;;
75435;SDS011;64014;53.432;14.534;2023-03-01T04:16:35;21.60;;;9.55;;
75435;SDS011;64014;53.432;14.534;2023-03-01T04:19:01;21.85;;;10.45;;
75435;SDS011;64014;53.432;14.534;2023-03-01T04:21:28;22.10;;;9.18;;
75435;SDS011;64014;53.432;14.534;2023-03-01T04:23:54;21.55;;;11.18;;
75435;SDS011;64014;53.432;14.534;2023-03-01T04:26:20;27.35;;;10.85;;
75435;SDS011;64014;53.432;14.534;2023-03-01T04:28:47;24.42;;;11.55;;
75435;SDS011;64014;53.432;14.534;2023-03-01T04:31:15;32.35;;;14.32;;
75435;SDS011;64014;53.432;14.534;2023-03-01T04:33:47;31.45;;;15.02;;
75435;SDS011;64014;53.432;14.534;2023-03-01T04:36:14;28.40;;;13.65;;
75435;SDS011;64014;53.432;14.534;2023-03-01T04:38:41;37.25;;;15.15;;
75435;SDS011;64014;53.432;14.534;2023-03-01T04:41:08;29.60;;;14.27;;
75435;SDS011;64014;53.432;14.534;2023-03-01T04:43:36;31.00;;;15.43;;
75435;SDS011;64014;53.432;14.534;2023-03-01T04:46:07;27.98;;;13.80;;
75435;SDS011;64014;53.432;14.534;2023-03-01T04:48:37;27.35;;;11.88;;
75435;SDS011;64014;53.432;14.534;2023-03-01T04:51:04;37.75;;;17.33;;
75435;SDS011;64014;53.432;14.534;2023-03-01T04:53:30;38.38;;;16.05;;
75435;SDS011;64014;53.432;14.534;2023-03-01T04:55:57;33.10;;;14.75;;
75435;SDS011;64014;53.432;14.534;2023-03-01T04:58:24;31.63;;;14.23;;
75435;SDS011;64014;53.432;14.534;2023-03-01T05:00:51;23.17;;;10.68;;
75435;SDS011;64014;53.432;14.534;2023-03-01T05:03:17;30.05;;;12.25;;
75435;SDS011;64014;53.432;14.534;2023-03-01T05:05:44;19.27;;;8.70;;
75435;SDS011;64014;53.432;14.534;2023-03-01T05:08:10;25.95;;;12.07;;
75435;SDS011;64014;53.432;14.534;2023-03-01T05:10:50;30.05;;;13.20;;
75435;SDS011;64014;53.432;14.534;2023-03-01T05:13:17;19.48;;;10.13;;
75435;SDS011;64014;53.432;14.534;2023-03-01T05:15:57;24.77;;;10.43;;
75435;SDS011;64014;53.432;14.534;2023-03-01T05:18:23;18.02;;;8.50;;
75435;SDS011;64014;53.432;14.534;2023-03-01T05:21:00;22.15;;;8.95;;
75435;SDS011;64014;53.432;14.534;2023-03-01T05:23:29;23.23;;;10.23;;
75435;SDS011;64014;53.432;14.534;2023-03-01T05:25:57;20.25;;;9.27;;
75435;SDS011;64014;53.432;14.534;2023-03-01T05:28:24;21.67;;;9.82;;
75435;SDS011;64014;53.432;14.534;2023-03-01T05:30:51;21.23;;;9.05;;
75435;SDS011;64014;53.432;14.534;2023-03-01T05:33:17;22.95;;;10.73;;
75435;SDS011;64014;53.432;14.534;2023-03-01T05:35:44;24.85;;;12.25;;
75435;SDS011;64014;53.432;14.534;2023-03-01T05:38:11;25.35;;;12.70;;
75435;SDS011;64014;53.432;14.534;2023-03-01T05:40:44;23.65;;;11.27;;
75435;SDS011;64014;53.432;14.534;2023-03-01T05:43:12;26.52;;;11.52;;
75435;SDS011;64014;53.432;14.534;2023-03-01T05:45:39;24.77;;;10.77;;
75435;SDS011;64014;53.432;14.534;2023-03-01T05:48:06;22.88;;;9.40;;
75435;SDS011;64014;53.432;14.534;2023-03-01T05:50:33;26.02;;;11.75;;
75435;SDS011;64014;53.432;14.534;2023-03-01T05:53:01;24.92;;;11.68;;
75435;SDS011;64014;53.432;14.534;2023-03-01T05:55:28;25.75;;;12.88;;
75435;SDS011;64014;53.432;14.534;2023-03-01T05:57:54;28.27;;;12.82;;
75435;SDS011;64014;53.432;14.534;2023-03-01T06:00:21;44.75;;;20.65;;
75435;SDS011;64014;53.432;14.534;2023-03-01T06:02:47;37.70;;;20.00;;
75435;SDS011;64014;53.432;14.534;2023-03-01T06:05:14;33.50;;;14.32;;
75435;SDS011;64014;53.432;14.534;2023-03-01T06:07:41;24.95;;;11.68;;
75435;SDS011;64014;53.432;14.534;2023-03-01T06:10:08;24.95;;;11.18;;
75435;SDS011;64014;53.432;14.534;2023-03-01T06:12:35;26.38;;;11.10;;
75435;SDS011;64014;53.432;14.534;2023-03-01T06:15:02;18.83;;;9.25;;
75435;SDS011;64014;53.432;14.534;2023-03-01T06:17:29;20.35;;;10.07;;
75435;SDS011;64014;53.432;14.534;2023-03-01T06:19:56;20.60;;;9.38;;
75435;SDS011;64014;53.432;14.534;2023-03-01T06:22:22;21.27;;;9.40;;
75435;SDS011;64014;53.432;14.534;2023-03-01T06:24:49;20.10;;;8.75;;
75435;SDS011;64014;53.432;14.534;2023-03-01T06:27:15;20.27;;;9.35;;
75435;SDS011;64014;53.432;14.534;2023-03-01T06:29:41;17.85;;;8.70;;
75435;SDS011;64014;53.432;14.534;2023-03-01T06:32:08;18.38;;;8.65;;
75435;SDS011;64014;53.432;14.534;2023-03-01T06:34:34;18.45;;;8.93;;
75435;SDS011;64014;53.432;14.534;2023-03-01T06:37:00;16.15;;;7.43;;
75435;SDS011;64014;53.432;14.534;2023-03-01T06:39:30;19.75;;;7.60;;
75435;SDS011;64014;53.432;14.534;2023-03-01T06:41:56;14.73;;;6.88;;
75435;SDS011;64014;53.432;14.534;2023-03-01T06:44:22;15.90;;;8.27;;
75435;SDS011;64014;53.432;14.534;2023-03-01T06:46:49;15.52;;;6.50;;
75435;SDS011;64014;53.432;14.534;2023-03-01T06:49:15;16.60;;;7.60;;
75435;SDS011;64014;53.432;14.534;2023-03-01T06:51:42;14.05;;;6.60;;
75435;SDS011;64014;53.432;14.534;2023-03-01T06:54:09;15.93;;;7.38;;
75435;SDS011;64014;53.432;14.534;2023-03-01T06:56:35;15.48;;;7.18;;
75435;SDS011;64014;53.432;14.534;2023-03-01T06:59:01;16.58;;;6.97;;
75435;SDS011;64014;53.432;14.534;2023-03-01T07:01:28;18.75;;;8.60;;
75435;SDS011;64014;53.432;14.534;2023-03-01T07:03:54;14.07;;;6.88;;
75435;SDS011;64014;53.432;14.534;2023-03-01T07:06:20;16.65;;;7.53;;
75435;SDS011;64014;53.432;14.534;2023-03-01T07:08:47;14.30;;;6.82;;
75435;SDS011;64014;53.432;14.534;2023-03-01T07:11:13;16.63;;;6.60;;
75435;SDS011;64014;53.432;14.534;2023-03-01T07:13:40;17.10;;;7.93;;
75435;SDS011;64014;53.432;14.534;2023-03-01T07:16:06;17.83;;;8.85;;
75435;SDS011;64014;53.432;14.534;2023-03-01T07:18:32;14.77;;;7.63;;
75435;SDS011;64014;53.432;14.534;2023-03-01T07:21:03;16.17;;;6.82;;
75435;SDS011;64014;53.432;14.534;2023-03-01T07:23:29;16.27;;;6.88;;
75435;SDS011;64014;53.432;14.534;2023-03-01T07:25:55;16.80;;;7.18;;
75435;SDS011;64014;53.432;14.534;2023-03-01T07:28:24;16.20;;;7.18;;
75435;SDS011;64014;53.432;14.534;2023-03-01T07:30:51;17.00;;;6.45;;
75435;SDS011;64014;53.432;14.534;2023-03-01T07:33:17;19.23;;;8.65;;
75435;SDS011;64014;53.432;14.534;2023-03-01T07:35:43;19.27;;;8.77;;
75435;SDS011;64014;53.432;14.534;2023-03-01T07:38:09;13.95;;;7.18;;
75435;SDS011;64014;53.432;14.534;2023-03-01T07:40:35;15.15;;;6.38;;
75435;SDS011;64014;53.432;14.534;2023-03-01T07:43:02;13.65;;;6.05;;
75435;SDS011;64014;53.432;14.534;2023-03-01T07:45:28;14.68;;;6.90;;
75435;SDS011;64014;53.432;14.534;2023-03-01T07:47:55;13.05;;;5.47;;
75435;SDS011;64014;53.432;14.534;2023-03-01T07:50:21;13.32;;;6.30;;
75435;SDS011;64014;53.432;14.534;2023-03-01T07:52:48;15.23;;;7.18;;
75435;SDS011;64014;53.432;14.534;2023-03-01T07:55:15;14.02;;;6.95;;
75435;SDS011;64014;53.432;14.534;2023-03-01T07:57:41;19.52;;;8.18;;
75435;SDS011;64014;53.432;14.534;2023-03-01T08:00:09;17.23;;;8.40;;
75435;SDS011;64014;53.432;14.534;2023-03-01T08:02:36;20.25;;;9.00;;
75435;SDS011;64014;53.432;14.534;2023-03-01T08:05:02;17.55;;;8.77;;
75435;SDS011;64014;53.432;14.534;2023-03-01T08:07:28;17.63;;;7.78;;
75435;SDS011;64014;53.432;14.534;2023-03-01T08:09:55;22.10;;;9.65;;
75435;SDS011;64014;53.432;14.534;2023-03-01T08:12:21;23.05;;;10.50;;
75435;SDS011;64014;53.432;14.534;2023-03-01T08:14:47;23.48;;;10.88;;
75435;SDS011;64014;53.432;14.534;2023-03-01T08:17:13;23.10;;;10.00;;
75435;SDS011;64014;53.432;14.534;2023-03-01T08:19:40;17.05;;;10.15;;
75435;SDS011;64014;53.432;14.534;2023-03-01T08:22:06;14.05;;;6.40;;
75435;SDS011;64014;53.432;14.534;2023-03-01T08:24:32;15.73;;;7.05;;
75435;SDS011;64014;53.432;14.534;2023-03-01T08:26:58;15.32;;;6.90;;
75435;SDS011;64014;53.432;14.534;2023-03-01T08:29:24;15.30;;;6.32;;
75435;SDS011;64014;53.432;14.534;2023-03-01T08:31:50;15.23;;;5.65;;
75435;SDS011;64014;53.432;14.534;2023-03-01T08:34:17;13.52;;;6.95;;
75435;SDS011;64014;53.432;14.534;2023-03-01T08:36:44;14.90;;;7.72;;
75435;SDS011;64014;53.432;14.534;2023-03-01T08:39:12;16.20;;;7.60;;
75435;SDS011;64014;53.432;14.534;2023-03-01T08:41:38;13.75;;;7.25;;
75435;SDS011;64014;53.432;14.534;2023-03-01T08:44:05;13.85;;;6.88;;
75435;SDS011;64014;53.432;14.534;2023-03-01T08:46:34;13.27;;;6.75;;
75435;SDS011;64014;53.432;14.534;2023-03-01T08:49:04;16.77;;;6.47;;
75435;SDS011;64014;53.432;14.534;2023-03-01T08:51:30;16.42;;;7.00;;
75435;SDS011;64014;53.432;14.534;2023-03-01T08:54:01;13.43;;;7.28;;
75435;SDS011;64014;53.432;14.534;2023-03-01T08:56:28;18.15;;;6.15;;
75435;SDS011;64014;53.432;14.534;2023-03-01T08:58:54;12.20;;;5.20;;
75435;SDS011;64014;53.432;14.534;2023-03-01T09:01:20;15.95;;;5.63;;
75435;SDS011;64014;53.432;14.534;2023-03-01T09:03:46;13.43;;;6.15;;
75435;SDS011;64014;53.432;14.534;2023-03-01T09:06:13;17.30;;;6.60;;
75435;SDS011;64014;53.432;14.534;2023-03-01T09:08:43;11.43;;;5.10;;
75435;SDS011;64014;53.432;14.534;2023-03-01T09:11:10;39.15;;;16.98;;
75435;SDS011;64014;53.432;14.534;2023-03-01T09:13:36;26.52;;;11.85;;
75435;SDS011;64014;53.432;14.534;2023-03-01T09:16:04;13.30;;;5.60;;
75435;SDS011;64014;53.432;14.534;2023-03-01T09:18:30;18.05;;;8.27;;
75435;SDS011;64014;53.432;14.534;2023-03-01T09:21:16;12.13;;;5.38;;
75435;SDS011;64014;53.432;14.534;2023-03-01T09:23:43;55.28;;;17.20;;
75435;SDS011;64014;53.432;14.534;2023-03-01T09:26:10;11.57;;;4.47;;
75435;SDS011;64014;53.432;14.534;2023-03-01T09:28:37;15.35;;;5.60;;
75435;SDS011;64014;53.432;14.534;2023-03-01T09:31:04;9.10;;;4.90;;
75435;SDS011;64014;53.432;14.534;2023-03-01T09:33:31;9.32;;;3.88;;
75435;SDS011;64014;53.432;14.534;2023-03-01T09:36:02;7.72;;;2.40;;
75435;SDS011;64014;53.432;14.534;2023-03-01T09:38:28;8.02;;;3.40;;
75435;SDS011;64014;53.432;14.534;2023-03-01T09:40:55;8.13;;;3.60;;
75435;SDS011;64014;53.432;14.534;2023-03-01T09:45:58;9.68;;;2.85;;
75435;SDS011;64014;53.432;14.534;2023-03-01T09:50:51;8.70;;;3.47;;
75435;SDS011;64014;53.432;14.534;2023-03-01T10:00:51;10.05;;;3.90;;
75435;SDS011;64014;53.432;14.534;2023-03-01T10:03:20;8.80;;;3.33;;
75435;SDS011;64014;53.432;14.534;2023-03-01T10:06:02;8.88;;;3.70;;
75435;SDS011;64014;53.432;14.534;2023-03-01T10:11:01;7.32;;;3.40;;
75435;SDS011;64014;53.432;14.534;2023-03-01T10:13:37;27.67;;;13.43;;
75435;SDS011;64014;53.432;14.534;2023-03-01T10:16:13;9.75;;;4.22;;
75435;SDS011;64014;53.432;14.534;2023-03-01T10:18:40;99.50;;;27.08;;
75435;SDS011;64014;53.432;14.534;2023-03-01T10:21:13;29.98;;;11.85;;
75435;SDS011;64014;53.432;14.534;2023-03-01T10:23:40;10.77;;;3.00;;
75435;SDS011;64014;53.432;14.534;2023-03-01T10:26:09;19.38;;;5.82;;
75435;SDS011;64014;53.432;14.534;2023-03-01T10:31:24;10.38;;;5.13;;
75435;SDS011;64014;53.432;14.534;2023-03-01T10:33:53;14.30;;;5.30;;
75435;SDS011;64014;53.432;14.534;2023-03-01T10:36:22;12.80;;;5.63;;
75435;SDS011;64014;53.432;14.534;2023-03-01T10:41:14;7.15;;;3.05;;
75435;SDS011;64014;53.432;14.534;2023-03-01T10:43:48;8.75;;;3.42;;
75435;SDS011;64014;53.432;14.534;2023-03-01T10:46:27;10.77;;;3.92;;
75435;SDS011;64014;53.432;14.534;2023-03-01T10:49:15;10.10;;;3.78;;
75435;SDS011;64014;53.432;14.534;2023-03-01T10:54:06;9.43;;;3.30;;
75435;SDS011;64014;53.432;14.534;2023-03-01T10:56:48;8.10;;;4.00;;
75435;SDS011;64014;53.432;14.534;2023-03-01T11:02:03;10.40;;;4.32;;
75435;SDS011;64014;53.432;14.534;2023-03-01T11:04:30;9.52;;;3.22;;
75435;SDS011;64014;53.432;14.534;2023-03-01T11:06:59;8.55;;;4.22;;
75435;SDS011;64014;53.432;14.534;2023-03-01T11:09:26;8.75;;;4.40;;
75435;SDS011;64014;53.432;14.534;2023-03-01T11:12:02;11.10;;;3.30;;
75435;SDS011;64014;53.432;14.534;2023-03-01T11:14:32;9.02;;;3.22;;
75435;SDS011;64014;53.432;14.534;2023-03-01T11:19:32;11.88;;;4.10;;
75435;SDS011;64014;53.432;14.534;2023-03-01T11:22:02;8.02;;;3.78;;
75435;SDS011;64014;53.432;14.534;2023-03-01T11:24:48;10.07;;;4.13;;
75435;SDS011;64014;53.432;14.534;2023-03-01T11:27:25;9.32;;;4.10;;
75435;SDS011;64014;53.432;14.534;2023-03-01T11:29:54;4.63;;;2.33;;
75435;SDS011;64014;53.432;14.534;2023-03-01T11:32:22;7.32;;;3.67;;
75435;SDS011;64014;53.432;14.534;2023-03-01T11:34:55;8.23;;;3.85;;
75435;SDS011;64014;53.432;14.534;2023-03-01T11:37:33;9.18;;;3.40;;
75435;SDS011;64014;53.432;14.534;2023-03-01T11:40:11;12.38;;;3.88;;
75435;SDS011;64014;53.432;14.534;2023-03-01T11:45:23;9.27;;;3.40;;
75435;SDS011;64014;53.432;14.534;2023-03-01T11:52:56;9.18;;;3.35;;
75435;SDS011;64014;53.432;14.534;2023-03-01T12:16:27;7.60;;;5.50;;
75435;SDS011;64014;53.432;14.534;2023-03-01T12:21:35;6.68;;;3.92;;
75435;SDS011;64014;53.432;14.534;2023-03-01T12:24:10;33.33;;;20.45;;
75435;SDS011;64014;53.432;14.534;2023-03-01T12:40:20;8.25;;;4.25;;
75435;SDS011;64014;53.432;14.534;2023-03-01T12:42:54;64.28;;;33.30;;
75435;SDS011;64014;53.432;14.534;2023-03-01T12:48:05;24.33;;;21.80;;
75435;SDS011;64014;53.432;14.534;2023-03-01T12:53:00;8.82;;;6.25;;
75435;SDS011;64014;53.432;14.534;2023-03-01T12:55:34;8.85;;;5.32;;
75435;SDS011;64014;53.432;14.534;2023-03-01T13:10:54;21.27;;;15.13;;
75435;SDS011;64014;53.432;14.534;2023-03-01T13:13:23;11.27;;;6.55;;
75435;SDS011;64014;53.432;14.534;2023-03-01T13:15:49;15.40;;;12.85;;
75435;SDS011;64014;53.432;14.534;2023-03-01T13:20:47;6.45;;;3.30;;
75435;SDS011;64014;53.432;14.534;2023-03-01T13:23:56;16.40;;;12.38;;
75435;SDS011;64014;53.432;14.534;2023-03-01T13:26:11;31.23;;;20.33;;
75435;SDS011;64014;53.432;14.534;2023-03-01T13:28:39;17.05;;;14.05;;
75435;SDS011;64014;53.432;14.534;2023-03-01T13:31:09;22.35;;;9.95;;
75435;SDS011;64014;53.432;14.534;2023-03-01T13:36:13;8.70;;;5.22;;
75435;SDS011;64014;53.432;14.534;2023-03-01T13:39:01;11.88;;;7.30;;
75435;SDS011;64014;53.432;14.534;2023-03-01T13:44:13;8.45;;;4.45;;
75435;SDS011;64014;53.432;14.534;2023-03-01T13:46:43;9.75;;;5.57;;
75435;SDS011;64014;53.432;14.534;2023-03-01T13:49:11;9.27;;;5.13;;
75435;SDS011;64014;53.432;14.534;2023-03-01T13:51:40;7.18;;;4.30;;
75435;SDS011;64014;53.432;14.534;2023-03-01T13:54:09;9.40;;;5.07;;
75435;SDS011;64014;53.432;14.534;2023-03-01T13:56:37;15.63;;;11.88;;
75435;SDS011;64014;53.432;14.534;2023-03-01T13:59:12;12.00;;;8.30;;
75435;SDS011;64014;53.432;14.534;2023-03-01T14:01:39;13.05;;;8.25;;
75435;SDS011;64014;53.432;14.534;2023-03-01T14:04:22;11.80;;;5.97;;
75435;SDS011;64014;53.432;14.534;2023-03-01T14:06:48;12.40;;;6.90;;
75435;SDS011;64014;53.432;14.534;2023-03-01T14:09:16;11.45;;;6.07;;
75435;SDS011;64014;53.432;14.534;2023-03-01T14:12:06;12.57;;;6.05;;
75435;SDS011;64014;53.432;14.534;2023-03-01T14:19:59;14.73;;;6.88;;
75435;SDS011;64014;53.432;14.534;2023-03-01T14:22:26;13.45;;;8.25;;
75435;SDS011;64014;53.432;14.534;2023-03-01T14:27:23;12.98;;;7.55;;
75435;SDS011;64014;53.432;14.534;2023-03-01T14:29:58;11.50;;;8.00;;
75435;SDS011;64014;53.432;14.534;2023-03-01T14:32:25;10.95;;;6.18;;
75435;SDS011;64014;53.432;14.534;2023-03-01T14:34:52;10.88;;;6.70;;
75435;SDS011;64014;53.432;14.534;2023-03-01T14:39:48;12.23;;;7.32;;
75435;SDS011;64014;53.432;14.534;2023-03-01T14:42:14;12.70;;;7.60;;
75435;SDS011;64014;53.432;14.534;2023-03-01T14:44:42;14.43;;;7.50;;
75435;SDS011;64014;53.432;14.534;2023-03-01T14:47:12;10.45;;;6.75;;
75435;SDS011;64014;53.432;14.534;2023-03-01T14:49:40;12.60;;;8.13;;
75435;SDS011;64014;53.432;14.534;2023-03-01T14:52:07;14.57;;;8.63;;
75435;SDS011;64014;53.432;14.534;2023-03-01T14:57:12;20.38;;;9.88;;
75435;SDS011;64014;53.432;14.534;2023-03-01T14:59:40;14.65;;;8.20;;
75435;SDS011;64014;53.432;14.534;2023-03-01T15:02:14;13.93;;;8.40;;
75435;SDS011;64014;53.432;14.534;2023-03-01T15:04:48;16.30;;;7.75;;
75435;SDS011;64014;53.432;14.534;2023-03-01T15:07:15;16.20;;;8.70;;
75435;SDS011;64014;53.432;14.534;2023-03-01T15:09:41;15.60;;;9.52;;
75435;SDS011;64014;53.432;14.534;2023-03-01T15:14:53;16.55;;;7.70;;
75435;SDS011;64014;53.432;14.534;2023-03-01T15:17:20;14.57;;;7.65;;
75435;SDS011;64014;53.432;14.534;2023-03-01T15:19:49;14.50;;;6.60;;
75435;SDS011;64014;53.432;14.534;2023-03-01T15:22:15;17.42;;;10.02;;
75435;SDS011;64014;53.432;14.534;2023-03-01T15:24:46;18.15;;;10.20;;
75435;SDS011;64014;53.432;14.534;2023-03-01T15:27:20;17.20;;;10.03;;
75435;SDS011;64014;53.432;14.534;2023-03-01T15:29:50;18.95;;;8.75;;
75435;SDS011;64014;53.432;14.534;2023-03-01T15:34:50;18.60;;;8.30;;
75435;SDS011;64014;53.432;14.534;2023-03-01T15:40:02;31.83;;;13.48;;
75435;SDS011;64014;53.432;14.534;2023-03-01T15:45:19;19.35;;;8.25;;
75435;SDS011;64014;53.432;14.534;2023-03-01T15:47:49;15.05;;;7.07;;
75435;SDS011;64014;53.432;14.534;2023-03-01T15:50:22;20.15;;;8.68;;
75435;SDS011;64014;53.432;14.534;2023-03-01T15:52:49;16.60;;;7.82;;
75435;SDS011;64014;53.432;14.534;2023-03-01T15:55:17;21.45;;;9.82;;
75435;SDS011;64014;53.432;14.534;2023-03-01T15:57:43;15.38;;;7.82;;
75435;SDS011;64014;53.432;14.534;2023-03-01T16:00:10;16.80;;;7.93;;
75435;SDS011;64014;53.432;14.534;2023-03-01T16:02:38;11.88;;;5.45;;
75435;SDS011;64014;53.432;14.534;2023-03-01T16:05:04;19.77;;;9.07;;
75435;SDS011;64014;53.432;14.534;2023-03-01T16:07:31;25.60;;;12.55;;
75435;SDS011;64014;53.432;14.534;2023-03-01T16:09:57;15.05;;;7.30;;
75435;SDS011;64014;53.432;14.534;2023-03-01T16:12:23;15.88;;;6.57;;
75435;SDS011;64014;53.432;14.534;2023-03-01T16:14:50;20.63;;;7.00;;
75435;SDS011;64014;53.432;14.534;2023-03-01T16:17:17;17.73;;;7.82;;
75435;SDS011;64014;53.432;14.534;2023-03-01T16:19:44;16.35;;;7.00;;
75435;SDS011;64014;53.432;14.534;2023-03-01T16:22:10;17.27;;;8.52;;
75435;SDS011;64014;53.432;14.534;2023-03-01T16:24:36;21.58;;;9.65;;
75435;SDS011;64014;53.432;14.534;2023-03-01T16:27:02;23.17;;;10.55;;
75435;SDS011;64014;53.432;14.534;2023-03-01T16:29:28;27.02;;;12.63;;
75435;SDS011;64014;53.432;14.534;2023-03-01T16:31:54;22.67;;;10.50;;
75435;SDS011;64014;53.432;14.534;2023-03-01T16:34:21;17.10;;;7.15;;
75435;SDS011;64014;53.432;14.534;2023-03-01T16:36:48;16.88;;;7.97;;